• Join FlightAware (Why Join?)
  • Login
  • US Flag 
 
12:22PM EST


 

Airport Tracker/Info


-or-


 

Live Flight TrackerFlight Track Log ✈ SKW4664 ✈ 24-Apr-2013 ✈ KMSP - KFSD

Flight Track Log - Related Links

Times and Time Zones

All times are in EDT time to prevent confusion due to time zone crossing. See the SKW4664 flight status page for this flight to view local times or setup timezone preferences in your user account.

Time Position Orientation Groundspeed Altitude Reporting Facility
EDT Latitude Longitude Course Direction KTS MPH feet Rate Location/Type
10:52AM 44.8919 -93.2786 235° Southwest 170 196 3,000  Level FAA TRACON SMA TRACON (SMA)
10:52AM 44.8897 -93.3006 262° West 182 209 3,900 2,520 Climbing FAA TRACON SMA TRACON (SMA)
10:52AM 44.8872 -93.3322 264° West 207 238 4,700 2,520 Climbing FAA TRACON SMA TRACON (SMA)
10:53AM 44.8850 -93.3608 264° West 231 266 5,600 3,420 Climbing FAA TRACON SMA TRACON (SMA)
10:53AM 44.8800 -93.3969 259° West 246 283 7,000 3,720 Climbing FAA TRACON SMA TRACON (SMA)
10:53AM 44.8689 -93.4231 239° Southwest 253 291 8,100 3,060 Climbing FAA TRACON SMA TRACON (SMA)
10:54AM 44.7002 -93.5997 232° Southwest  Level FlightAware Approximate
10:54AM 44.8536 -93.4467 228° Southwest 260 299 9,100  Level FAA TRACON SMA TRACON (SMA)
10:54AM 44.8342 -93.4756 227° Southwest 267 307 10,200 2,520 Climbing FAA TRACON SMA TRACON (SMA)
10:54AM 44.8172 -93.5003 226° Southwest 278 320 10,800 2,460 Climbing FAA TRACON SMA TRACON (SMA)
10:55AM 44.6352 -93.7297 235° Southwest  Level FlightAware Approximate
10:55AM 44.8003 -93.5253 226° Southwest 287 330 11,800  Level FAA TRACON SMA TRACON (SMA)
10:55AM 44.7789 -93.5575 227° Southwest 292 336 12,700 2,220 Climbing FAA TRACON SMA TRACON (SMA)
10:55AM 44.7608 -93.5844 227° Southwest 303 349 13,300 1,920 Climbing FAA TRACON SMA TRACON (SMA)
10:56AM 44.5652 -93.8525 230° Southwest  Level FlightAware Approximate
10:56AM 44.7425 -93.6119 227° Southwest 311 358 14,000  Level FAA TRACON SMA TRACON (SMA)
10:56AM 44.7194 -93.6469 227° Southwest 317 365 15,000 3,000 Climbing FAA TRACON SMA TRACON (SMA)
10:56AM 44.7008 -93.6739 226° Southwest 316 364 16,000 2,460 Climbing FAA TRACON SMA TRACON (SMA)
10:57AM 44.4951 -93.9766 235° Southwest  Level FlightAware Approximate
10:57AM 44.6819 -93.7011 226° Southwest 317 365 16,700  Level FAA TRACON SMA TRACON (SMA)
10:57AM 44.6581 -93.7361 226° Southwest 322 371 17,500 2,220 Climbing FAA TRACON SMA TRACON (SMA)
10:57AM 44.6392 -93.7644 227° Southwest 323 372 18,200 2,100 Climbing FAA TRACON SMA TRACON (SMA)
10:58AM 44.6197 -93.7922 225° Southwest 325 374 18,900 2,100 Climbing FAA TRACON SMA TRACON (SMA)
10:58AM 44.6006 -93.8200 226° Southwest 324 373 19,600 2,100 Climbing FAA TRACON SMA TRACON (SMA)
10:58AM 44.5778 -93.8575 230° Southwest 326 375 20,300 1,800 Climbing FAA TRACON SMA TRACON (SMA)
10:59AM 44.5619 -93.8894 235° Southwest 326 375 20,800 1,500 Climbing FAA TRACON SMA TRACON (SMA)
10:59AM 44.5406 -93.9297 233° Southwest 332 382 21,300 1,620 Climbing FAA TRACON SMA TRACON (SMA)
10:59AM 44.5239 -93.9628 235° Southwest 336 387 21,900 1,500 Climbing FAA TRACON SMA TRACON (SMA)
11:00AM 44.5064 -93.9953 233° Southwest 339 390 22,300 1,440 Climbing FAA TRACON SMA TRACON (SMA)
11:00AM 44.4856 -94.0369 235° Southwest 342 394 22,900 660 Climbing FAA TRACON SMA TRACON (SMA)
11:01AM 44.4494 -94.1058 234° Southwest 358 412 23,000 60 Climbing FAA TRACON SMA TRACON (SMA)
11:01AM 44.4261 -94.1514 234° Southwest 373 429 23,000  Level FAA TRACON SMA TRACON (SMA)
11:01AM 44.4072 -94.1889 235° Southwest 382 440 23,000  Level FAA TRACON SMA TRACON (SMA)
11:02AM 44.3883 -94.2267 235° Southwest 386 444 23,000  Level FAA TRACON SMA TRACON (SMA)
11:02AM 44.3681 -94.2633 232° Southwest 387 445 23,000  Level FAA TRACON SMA TRACON (SMA)
11:02AM 44.3439 -94.3103 234° Southwest 388 447 23,000  Level FAA TRACON SMA TRACON (SMA)
11:03AM 44.3236 -94.3469 232° Southwest 389 448 23,000  Level FAA TRACON SMA TRACON (SMA)
11:03AM 44.3150 -94.3669 239° Southwest 389 448 23,000  Level FAA TRACON SMA TRACON (SMA)
11:04AM 44.2575 -94.4628 230° Southwest 388 447 23,000  Level Minneapolis Center
11:05AM 44.1933 -94.5833 233° Southwest 389 448 23,000  Level Minneapolis Center
11:06AM 44.1361 -94.7281 241° Southwest 379 436 23,000  Level Minneapolis Center
11:07AM 44.0994 -94.8653 250° West 377 434 23,000  Level Minneapolis Center
11:08AM 44.0647 -95.0003 250° West 373 429 23,000  Level Minneapolis Center
11:09AM 44.0272 -95.1350 249° West 372 428 23,000  Level Minneapolis Center
11:10AM 43.9914 -95.2686 250° West 371 427 23,000  Level Minneapolis Center
11:11AM 43.9556 -95.4011 249° West 368 423 23,000 -600 Level Minneapolis Center
11:12AM 43.9128 -95.5592 249° West 364 419 21,800 -2,220 Descending Minneapolis Center
11:13AM 43.8781 -95.6861 249° West 355 409 18,500 -2,820 Descending Minneapolis Center
11:14AM 43.8464 -95.8056 250° West 335 386 15,500 -3,060 Descending Minneapolis Center
11:15AM 43.8097 -95.9464 250° West 325 374 11,600 -2,700 Descending Minneapolis Center
11:16AM 43.7883 -96.0569 255° West 312 359 10,000 -1,500 Descending Minneapolis Center
11:17AM 43.7683 -96.1475 253° West 276 318 8,500 -1,320 Descending Minneapolis Center
11:18AM 43.7539 -96.2228 255° West 261 300 7,300 -1,500 Descending Minneapolis Center
11:19AM 43.7303 -96.3347 254° West 254 292 5,500 -1,800 Descending Minneapolis Center
11:21AM 43.7075 -96.4461 254° West 252 290 3,700 -1,260 Descending Minneapolis Center
11:22AM 43.6897 -96.5308 254° West 244 281 3,000 -720 Descending Minneapolis Center